Main page
METAR-TAF:

METAR-TAF

Airports :

Turkmenabat Airport

Türkmenabat, Turkmenistan

latitude: 39-05-00N, longitude: 063-36-48E, elevation: 192 m

Current weather observation

The report was made 29 minutes ago, at 00:00 UTC
Wind 4 kt from the East
Temperature 0°C
Humidity 80%
Pressure 1020 hPa
Visibility 10 km or more
no clouds below 1500 m and no cumulonimbus

METAR: UTAV 230000Z 10004KT CAVOK M00/M03 Q1020 NOSIG

Time: 05:29 (00:29 UTC)

Forecast

The report was made 1 hour and 59 minutes ago, at 22:30 UTC
Forecast valid from 23 at 00 UTC to 23 at 24 UTC
Wind 14 kt from the East
Visibility: 2000 m
Broken clouds at a height of 3000 ft
mist
Temporary
from 23 at 00 UTC to 23 at 05 UTC
Wind 12 kt from the Northeast
Visibility: 0300 m
at a height of 200 ft
freezing fog
Becoming
from 23 at 05 UTC to 23 at 06 UTC
Visibility: 6000 m
Broken clouds at a height of 5000 ft

TAF: UTAV 222230Z 2300/2324 10014KT 2000 BR BKN030 530003 TEMPO 2300/2305 04012KT 0300 FZFG VV002 BECMG 2305/2306 6000 BKN050

Weather observations and forecasts of more than 4000 airports (METAR and TAF reports).

The available stations are represented by yellow and red dots on the map.

Hover mouse over dot to see the name of the station.

Then click to see weather observations and forecasts.

To change the map : click on the green buttons with a black cross to zoom in, on the green button with a dash to zoom out, or on the green arrows for adjacent maps.


METAR-TAF: